sensor_id;sensor_type;location;lat;lon;timestamp;P1;durP1;ratioP1;P2;durP2;ratioP2
7813;SDS011;3952;48.364;16.022;2022-07-29T00:02:12;4.07;;;3.67;;
7813;SDS011;3952;48.364;16.022;2022-07-29T00:04:39;4.40;;;4.00;;
7813;SDS011;3952;48.364;16.022;2022-07-29T00:07:06;3.70;;;3.50;;
7813;SDS011;3952;48.364;16.022;2022-07-29T00:09:35;4.23;;;4.03;;
7813;SDS011;3952;48.364;16.022;2022-07-29T00:12:02;4.40;;;4.10;;
7813;SDS011;3952;48.364;16.022;2022-07-29T00:14:30;4.37;;;4.17;;
7813;SDS011;3952;48.364;16.022;2022-07-29T00:16:58;4.53;;;4.23;;
7813;SDS011;3952;48.364;16.022;2022-07-29T00:19:25;4.40;;;4.10;;
7813;SDS011;3952;48.364;16.022;2022-07-29T00:21:52;5.03;;;4.00;;
7813;SDS011;3952;48.364;16.022;2022-07-29T00:24:19;4.40;;;4.17;;
7813;SDS011;3952;48.364;16.022;2022-07-29T00:26:48;4.00;;;3.70;;
7813;SDS011;3952;48.364;16.022;2022-07-29T00:29:15;4.07;;;3.87;;
7813;SDS011;3952;48.364;16.022;2022-07-29T00:31:42;4.40;;;4.10;;
7813;SDS011;3952;48.364;16.022;2022-07-29T00:34:10;4.37;;;4.17;;
7813;SDS011;3952;48.364;16.022;2022-07-29T00:36:51;4.23;;;4.03;;
7813;SDS011;3952;48.364;16.022;2022-07-29T00:39:18;4.77;;;4.40;;
7813;SDS011;3952;48.364;16.022;2022-07-29T00:41:45;4.40;;;4.10;;
7813;SDS011;3952;48.364;16.022;2022-07-29T00:44:14;4.57;;;4.27;;
7813;SDS011;3952;48.364;16.022;2022-07-29T00:46:41;4.13;;;3.93;;
7813;SDS011;3952;48.364;16.022;2022-07-29T00:49:08;4.67;;;4.27;;
7813;SDS011;3952;48.364;16.022;2022-07-29T00:51:36;4.87;;;4.57;;
7813;SDS011;3952;48.364;16.022;2022-07-29T00:54:04;4.83;;;4.53;;
7813;SDS011;3952;48.364;16.022;2022-07-29T00:56:33;5.00;;;4.50;;
7813;SDS011;3952;48.364;16.022;2022-07-29T00:59:01;4.70;;;4.40;;
7813;SDS011;3952;48.364;16.022;2022-07-29T01:01:29;5.03;;;4.73;;
7813;SDS011;3952;48.364;16.022;2022-07-29T01:03:56;4.37;;;4.07;;
7813;SDS011;3952;48.364;16.022;2022-07-29T01:06:24;4.37;;;4.17;;
7813;SDS011;3952;48.364;16.022;2022-07-29T01:08:52;4.40;;;4.20;;
7813;SDS011;3952;48.364;16.022;2022-07-29T01:11:19;4.53;;;4.20;;
7813;SDS011;3952;48.364;16.022;2022-07-29T01:13:47;5.37;;;4.87;;
7813;SDS011;3952;48.364;16.022;2022-07-29T01:16:17;4.23;;;4.03;;
7813;SDS011;3952;48.364;16.022;2022-07-29T01:18:54;4.40;;;4.17;;
7813;SDS011;3952;48.364;16.022;2022-07-29T01:21:40;4.40;;;4.17;;
7813;SDS011;3952;48.364;16.022;2022-07-29T01:24:25;4.80;;;4.40;;
7813;SDS011;3952;48.364;16.022;2022-07-29T01:27:09;4.30;;;4.10;;
7813;SDS011;3952;48.364;16.022;2022-07-29T01:29:58;4.73;;;4.40;;
7813;SDS011;3952;48.364;16.022;2022-07-29T01:32:27;4.20;;;4.00;;
7813;SDS011;3952;48.364;16.022;2022-07-29T01:34:58;5.13;;;4.73;;
7813;SDS011;3952;48.364;16.022;2022-07-29T01:37:32;4.20;;;3.90;;
7813;SDS011;3952;48.364;16.022;2022-07-29T01:40:05;4.70;;;4.30;;
7813;SDS011;3952;48.364;16.022;2022-07-29T01:42:38;4.60;;;4.30;;
7813;SDS011;3952;48.364;16.022;2022-07-29T01:45:12;4.73;;;4.50;;
7813;SDS011;3952;48.364;16.022;2022-07-29T01:47:46;4.40;;;4.00;;
7813;SDS011;3952;48.364;16.022;2022-07-29T01:50:20;4.30;;;4.00;;
7813;SDS011;3952;48.364;16.022;2022-07-29T01:52:54;4.43;;;4.07;;
7813;SDS011;3952;48.364;16.022;2022-07-29T01:55:26;4.80;;;4.40;;
7813;SDS011;3952;48.364;16.022;2022-07-29T01:57:56;4.17;;;3.97;;
7813;SDS011;3952;48.364;16.022;2022-07-29T02:00:27;5.27;;;4.77;;
7813;SDS011;3952;48.364;16.022;2022-07-29T02:02:55;4.67;;;4.37;;
7813;SDS011;3952;48.364;16.022;2022-07-29T02:05:24;5.23;;;4.90;;
7813;SDS011;3952;48.364;16.022;2022-07-29T02:07:55;4.97;;;4.67;;
7813;SDS011;3952;48.364;16.022;2022-07-29T02:10:27;4.80;;;4.50;;
7813;SDS011;3952;48.364;16.022;2022-07-29T02:12:57;5.10;;;4.80;;
7813;SDS011;3952;48.364;16.022;2022-07-29T02:15:29;4.90;;;4.60;;
7813;SDS011;3952;48.364;16.022;2022-07-29T02:18:00;4.90;;;4.60;;
7813;SDS011;3952;48.364;16.022;2022-07-29T02:20:31;4.50;;;4.20;;
7813;SDS011;3952;48.364;16.022;2022-07-29T02:23:00;4.20;;;3.90;;
7813;SDS011;3952;48.364;16.022;2022-07-29T02:25:29;5.00;;;4.70;;
7813;SDS011;3952;48.364;16.022;2022-07-29T02:27:57;5.30;;;5.00;;
7813;SDS011;3952;48.364;16.022;2022-07-29T02:30:26;5.50;;;5.20;;
7813;SDS011;3952;48.364;16.022;2022-07-29T02:32:56;5.30;;;4.90;;
7813;SDS011;3952;48.364;16.022;2022-07-29T02:35:25;5.33;;;5.03;;
7813;SDS011;3952;48.364;16.022;2022-07-29T02:37:53;5.20;;;4.90;;
7813;SDS011;3952;48.364;16.022;2022-07-29T02:40:39;4.97;;;4.67;;
7813;SDS011;3952;48.364;16.022;2022-07-29T02:43:08;5.30;;;5.00;;
7813;SDS011;3952;48.364;16.022;2022-07-29T02:45:38;5.10;;;4.80;;
7813;SDS011;3952;48.364;16.022;2022-07-29T02:48:06;5.27;;;4.97;;
7813;SDS011;3952;48.364;16.022;2022-07-29T02:50:40;4.50;;;4.20;;
7813;SDS011;3952;48.364;16.022;2022-07-29T02:53:16;4.53;;;4.23;;
7813;SDS011;3952;48.364;16.022;2022-07-29T02:55:48;5.03;;;4.63;;
7813;SDS011;3952;48.364;16.022;2022-07-29T02:58:23;5.27;;;4.80;;
7813;SDS011;3952;48.364;16.022;2022-07-29T03:00:55;4.97;;;4.67;;
7813;SDS011;3952;48.364;16.022;2022-07-29T03:03:24;4.63;;;4.43;;
7813;SDS011;3952;48.364;16.022;2022-07-29T03:05:55;4.73;;;4.50;;
7813;SDS011;3952;48.364;16.022;2022-07-29T03:08:24;4.90;;;4.60;;
7813;SDS011;3952;48.364;16.022;2022-07-29T03:10:52;4.77;;;4.47;;
7813;SDS011;3952;48.364;16.022;2022-07-29T03:13:21;4.50;;;4.20;;
7813;SDS011;3952;48.364;16.022;2022-07-29T03:15:49;4.30;;;3.90;;
7813;SDS011;3952;48.364;16.022;2022-07-29T03:18:18;5.27;;;4.87;;
7813;SDS011;3952;48.364;16.022;2022-07-29T03:20:46;5.10;;;4.80;;
7813;SDS011;3952;48.364;16.022;2022-07-29T03:23:18;4.40;;;4.20;;
7813;SDS011;3952;48.364;16.022;2022-07-29T03:25:48;4.30;;;4.10;;
7813;SDS011;3952;48.364;16.022;2022-07-29T03:28:15;4.80;;;4.60;;
7813;SDS011;3952;48.364;16.022;2022-07-29T03:30:42;4.37;;;4.17;;
7813;SDS011;3952;48.364;16.022;2022-07-29T03:33:09;4.60;;;4.40;;
7813;SDS011;3952;48.364;16.022;2022-07-29T03:35:38;4.60;;;4.20;;
7813;SDS011;3952;48.364;16.022;2022-07-29T03:38:05;4.67;;;4.37;;
7813;SDS011;3952;48.364;16.022;2022-07-29T03:40:38;5.07;;;4.77;;
7813;SDS011;3952;48.364;16.022;2022-07-29T03:43:09;4.77;;;4.37;;
7813;SDS011;3952;48.364;16.022;2022-07-29T03:45:37;4.70;;;4.40;;
7813;SDS011;3952;48.364;16.022;2022-07-29T03:48:10;4.63;;;4.33;;
7813;SDS011;3952;48.364;16.022;2022-07-29T03:50:41;4.80;;;4.50;;
7813;SDS011;3952;48.364;16.022;2022-07-29T03:53:09;4.40;;;4.10;;
7813;SDS011;3952;48.364;16.022;2022-07-29T03:55:37;4.80;;;4.40;;
7813;SDS011;3952;48.364;16.022;2022-07-29T03:58:08;5.27;;;4.77;;
7813;SDS011;3952;48.364;16.022;2022-07-29T04:00:37;4.57;;;4.37;;
7813;SDS011;3952;48.364;16.022;2022-07-29T04:03:04;5.23;;;4.90;;
7813;SDS011;3952;48.364;16.022;2022-07-29T04:05:32;4.50;;;4.30;;
7813;SDS011;3952;48.364;16.022;2022-07-29T04:08:00;5.03;;;4.73;;
7813;SDS011;3952;48.364;16.022;2022-07-29T04:10:28;4.90;;;4.60;;
7813;SDS011;3952;48.364;16.022;2022-07-29T04:12:55;5.40;;;5.00;;
7813;SDS011;3952;48.364;16.022;2022-07-29T04:15:22;5.20;;;4.90;;
7813;SDS011;3952;48.364;16.022;2022-07-29T04:17:50;4.70;;;4.30;;
7813;SDS011;3952;48.364;16.022;2022-07-29T04:20:17;4.97;;;4.40;;
7813;SDS011;3952;48.364;16.022;2022-07-29T04:22:44;4.97;;;4.70;;
7813;SDS011;3952;48.364;16.022;2022-07-29T04:25:14;5.13;;;4.83;;
7813;SDS011;3952;48.364;16.022;2022-07-29T04:27:41;4.93;;;4.73;;
7813;SDS011;3952;48.364;16.022;2022-07-29T04:30:22;4.63;;;4.40;;
7813;SDS011;3952;48.364;16.022;2022-07-29T04:32:49;5.10;;;4.80;;
7813;SDS011;3952;48.364;16.022;2022-07-29T04:35:17;5.00;;;4.70;;
7813;SDS011;3952;48.364;16.022;2022-07-29T04:37:44;5.77;;;5.20;;
7813;SDS011;3952;48.364;16.022;2022-07-29T04:40:13;5.67;;;5.17;;
7813;SDS011;3952;48.364;16.022;2022-07-29T04:42:40;5.30;;;4.90;;
7813;SDS011;3952;48.364;16.022;2022-07-29T04:45:08;5.40;;;5.10;;
7813;SDS011;3952;48.364;16.022;2022-07-29T04:47:35;5.30;;;5.00;;
7813;SDS011;3952;48.364;16.022;2022-07-29T04:50:02;5.90;;;5.37;;
7813;SDS011;3952;48.364;16.022;2022-07-29T04:52:32;5.40;;;4.93;;
7813;SDS011;3952;48.364;16.022;2022-07-29T04:54:59;5.03;;;4.73;;
7813;SDS011;3952;48.364;16.022;2022-07-29T04:57:28;4.97;;;4.57;;
7813;SDS011;3952;48.364;16.022;2022-07-29T04:59:55;5.13;;;4.83;;
7813;SDS011;3952;48.364;16.022;2022-07-29T05:02:22;4.70;;;4.40;;
7813;SDS011;3952;48.364;16.022;2022-07-29T05:04:49;4.83;;;4.50;;
7813;SDS011;3952;48.364;16.022;2022-07-29T05:07:17;4.80;;;4.50;;
7813;SDS011;3952;48.364;16.022;2022-07-29T05:09:44;5.40;;;5.00;;
7813;SDS011;3952;48.364;16.022;2022-07-29T05:12:11;5.20;;;4.90;;
7813;SDS011;3952;48.364;16.022;2022-07-29T05:14:40;5.30;;;5.00;;
7813;SDS011;3952;48.364;16.022;2022-07-29T05:17:07;4.70;;;4.40;;
7813;SDS011;3952;48.364;16.022;2022-07-29T05:19:34;4.30;;;4.10;;
7813;SDS011;3952;48.364;16.022;2022-07-29T05:22:02;4.77;;;4.17;;
7813;SDS011;3952;48.364;16.022;2022-07-29T05:24:29;4.20;;;3.93;;
7813;SDS011;3952;48.364;16.022;2022-07-29T05:26:56;4.73;;;4.43;;
7813;SDS011;3952;48.364;16.022;2022-07-29T05:29:23;4.63;;;4.43;;
7813;SDS011;3952;48.364;16.022;2022-07-29T05:31:52;5.27;;;4.30;;
7813;SDS011;3952;48.364;16.022;2022-07-29T05:34:19;4.83;;;4.40;;
7813;SDS011;3952;48.364;16.022;2022-07-29T05:36:46;4.77;;;4.37;;
7813;SDS011;3952;48.364;16.022;2022-07-29T05:39:14;4.83;;;4.63;;
7813;SDS011;3952;48.364;16.022;2022-07-29T05:41:41;5.53;;;5.13;;
7813;SDS011;3952;48.364;16.022;2022-07-29T05:44:08;5.20;;;4.70;;
7813;SDS011;3952;48.364;16.022;2022-07-29T05:46:36;5.40;;;5.00;;
7813;SDS011;3952;48.364;16.022;2022-07-29T05:49:05;5.23;;;4.93;;
7813;SDS011;3952;48.364;16.022;2022-07-29T05:51:32;4.70;;;4.50;;
7813;SDS011;3952;48.364;16.022;2022-07-29T05:53:59;4.70;;;4.40;;
7813;SDS011;3952;48.364;16.022;2022-07-29T05:56:27;4.37;;;4.07;;
7813;SDS011;3952;48.364;16.022;2022-07-29T05:58:54;4.57;;;4.27;;
7813;SDS011;3952;48.364;16.022;2022-07-29T06:01:22;4.50;;;4.23;;
7813;SDS011;3952;48.364;16.022;2022-07-29T06:03:49;5.40;;;4.93;;
7813;SDS011;3952;48.364;16.022;2022-07-29T06:06:17;4.57;;;4.27;;
7813;SDS011;3952;48.364;16.022;2022-07-29T06:08:45;4.30;;;4.10;;
7813;SDS011;3952;48.364;16.022;2022-07-29T06:11:12;4.00;;;3.80;;
7813;SDS011;3952;48.364;16.022;2022-07-29T06:13:39;5.50;;;4.50;;
7813;SDS011;3952;48.364;16.022;2022-07-29T06:16:07;5.33;;;4.93;;
7813;SDS011;3952;48.364;16.022;2022-07-29T06:18:34;4.70;;;4.30;;
7813;SDS011;3952;48.364;16.022;2022-07-29T06:21:01;5.23;;;4.83;;
7813;SDS011;3952;48.364;16.022;2022-07-29T06:23:35;4.90;;;4.60;;
7813;SDS011;3952;48.364;16.022;2022-07-29T06:26:03;4.10;;;3.90;;
7813;SDS011;3952;48.364;16.022;2022-07-29T06:28:30;4.47;;;4.17;;
7813;SDS011;3952;48.364;16.022;2022-07-29T06:30:58;4.07;;;3.87;;
7813;SDS011;3952;48.364;16.022;2022-07-29T06:33:25;4.77;;;4.43;;
7813;SDS011;3952;48.364;16.022;2022-07-29T06:35:52;6.23;;;5.63;;
7813;SDS011;3952;48.364;16.022;2022-07-29T06:38:20;5.40;;;5.00;;
7813;SDS011;3952;48.364;16.022;2022-07-29T06:40:49;5.77;;;5.27;;
7813;SDS011;3952;48.364;16.022;2022-07-29T06:43:33;4.70;;;4.40;;
7813;SDS011;3952;48.364;16.022;2022-07-29T06:46:04;6.43;;;5.07;;
7813;SDS011;3952;48.364;16.022;2022-07-29T06:48:33;5.23;;;4.80;;
7813;SDS011;3952;48.364;16.022;2022-07-29T06:51:01;5.03;;;4.73;;
7813;SDS011;3952;48.364;16.022;2022-07-29T06:53:29;5.00;;;4.70;;
7813;SDS011;3952;48.364;16.022;2022-07-29T06:55:58;5.30;;;5.00;;
7813;SDS011;3952;48.364;16.022;2022-07-29T06:58:26;5.63;;;5.30;;
7813;SDS011;3952;48.364;16.022;2022-07-29T07:00:54;6.00;;;5.50;;
7813;SDS011;3952;48.364;16.022;2022-07-29T07:03:21;6.10;;;5.53;;
7813;SDS011;3952;48.364;16.022;2022-07-29T07:05:49;5.97;;;5.47;;
7813;SDS011;3952;48.364;16.022;2022-07-29T07:08:16;6.30;;;5.70;;
7813;SDS011;3952;48.364;16.022;2022-07-29T07:10:44;5.60;;;5.20;;
7813;SDS011;3952;48.364;16.022;2022-07-29T07:13:13;5.20;;;4.90;;
7813;SDS011;3952;48.364;16.022;2022-07-29T07:15:42;4.80;;;4.40;;
7813;SDS011;3952;48.364;16.022;2022-07-29T07:18:12;4.97;;;4.57;;
7813;SDS011;3952;48.364;16.022;2022-07-29T07:20:40;5.20;;;4.90;;
7813;SDS011;3952;48.364;16.022;2022-07-29T07:23:07;5.77;;;5.47;;
7813;SDS011;3952;48.364;16.022;2022-07-29T07:25:35;5.17;;;4.87;;
7813;SDS011;3952;48.364;16.022;2022-07-29T07:28:02;7.60;;;5.00;;
7813;SDS011;3952;48.364;16.022;2022-07-29T07:30:31;5.50;;;5.10;;
7813;SDS011;3952;48.364;16.022;2022-07-29T07:32:59;5.70;;;5.27;;
7813;SDS011;3952;48.364;16.022;2022-07-29T07:35:26;5.43;;;5.07;;
7813;SDS011;3952;48.364;16.022;2022-07-29T07:37:54;5.40;;;4.93;;
7813;SDS011;3952;48.364;16.022;2022-07-29T07:40:21;5.10;;;4.80;;
7813;SDS011;3952;48.364;16.022;2022-07-29T07:42:49;6.73;;;4.77;;
7813;SDS011;3952;48.364;16.022;2022-07-29T07:45:16;5.80;;;5.30;;
7813;SDS011;3952;48.364;16.022;2022-07-29T07:47:44;5.00;;;4.70;;
7813;SDS011;3952;48.364;16.022;2022-07-29T07:50:12;5.83;;;5.27;;
7813;SDS011;3952;48.364;16.022;2022-07-29T07:52:46;5.47;;;5.00;;
7813;SDS011;3952;48.364;16.022;2022-07-29T07:55:15;5.00;;;4.70;;
7813;SDS011;3952;48.364;16.022;2022-07-29T07:57:42;5.67;;;5.27;;
7813;SDS011;3952;48.364;16.022;2022-07-29T08:00:10;5.13;;;4.63;;
7813;SDS011;3952;48.364;16.022;2022-07-29T08:02:39;4.57;;;4.13;;
7813;SDS011;3952;48.364;16.022;2022-07-29T08:05:09;4.70;;;4.30;;
7813;SDS011;3952;48.364;16.022;2022-07-29T08:07:38;4.55;;;4.30;;
7813;SDS011;3952;48.364;16.022;2022-07-29T08:10:06;6.75;;;4.22;;
7813;SDS011;3952;48.364;16.022;2022-07-29T08:12:34;4.20;;;3.90;;
7813;SDS011;3952;48.364;16.022;2022-07-29T08:15:02;4.82;;;4.43;;
7813;SDS011;3952;48.364;16.022;2022-07-29T08:17:29;4.45;;;4.15;;
7813;SDS011;3952;48.364;16.022;2022-07-29T08:19:57;5.60;;;4.80;;
7813;SDS011;3952;48.364;16.022;2022-07-29T08:22:25;4.32;;;4.00;;
7813;SDS011;3952;48.364;16.022;2022-07-29T08:24:52;5.35;;;4.30;;
7813;SDS011;3952;48.364;16.022;2022-07-29T08:27:21;4.65;;;4.25;;
7813;SDS011;3952;48.364;16.022;2022-07-29T08:29:51;4.38;;;4.07;;
7813;SDS011;3952;48.364;16.022;2022-07-29T08:32:20;4.63;;;4.22;;
7813;SDS011;3952;48.364;16.022;2022-07-29T08:34:48;4.35;;;4.05;;
7813;SDS011;3952;48.364;16.022;2022-07-29T08:37:15;4.50;;;4.10;;
7813;SDS011;3952;48.364;16.022;2022-07-29T08:39:43;4.75;;;4.45;;
7813;SDS011;3952;48.364;16.022;2022-07-29T08:42:11;4.15;;;3.95;;
7813;SDS011;3952;48.364;16.022;2022-07-29T08:44:38;4.97;;;4.60;;
7813;SDS011;3952;48.364;16.022;2022-07-29T08:47:05;4.80;;;4.22;;
7813;SDS011;3952;48.364;16.022;2022-07-29T08:49:33;4.32;;;4.03;;
7813;SDS011;3952;48.364;16.022;2022-07-29T08:52:01;4.38;;;4.07;;
7813;SDS011;3952;48.364;16.022;2022-07-29T08:54:29;4.25;;;4.03;;
7813;SDS011;3952;48.364;16.022;2022-07-29T08:56:58;4.07;;;3.78;;
7813;SDS011;3952;48.364;16.022;2022-07-29T08:59:26;6.35;;;3.90;;
7813;SDS011;3952;48.364;16.022;2022-07-29T09:01:56;3.92;;;3.72;;
7813;SDS011;3952;48.364;16.022;2022-07-29T09:04:26;4.50;;;4.18;;
7813;SDS011;3952;48.364;16.022;2022-07-29T09:06:58;4.47;;;4.18;;
7813;SDS011;3952;48.364;16.022;2022-07-29T09:09:29;4.22;;;3.92;;
7813;SDS011;3952;48.364;16.022;2022-07-29T09:11:59;4.57;;;4.18;;
7813;SDS011;3952;48.364;16.022;2022-07-29T09:14:29;4.50;;;4.25;;
7813;SDS011;3952;48.364;16.022;2022-07-29T09:16:56;4.75;;;4.32;;
7813;SDS011;3952;48.364;16.022;2022-07-29T09:19:24;4.65;;;4.32;;
7813;SDS011;3952;48.364;16.022;2022-07-29T09:21:53;4.20;;;4.00;;
7813;SDS011;3952;48.364;16.022;2022-07-29T09:24:36;4.40;;;4.10;;
7813;SDS011;3952;48.364;16.022;2022-07-29T09:27:10;4.53;;;4.22;;
7813;SDS011;3952;48.364;16.022;2022-07-29T09:29:45;6.47;;;4.60;;
7813;SDS011;3952;48.364;16.022;2022-07-29T09:32:13;4.90;;;4.50;;
7813;SDS011;3952;48.364;16.022;2022-07-29T09:34:40;6.40;;;4.35;;
7813;SDS011;3952;48.364;16.022;2022-07-29T09:37:08;4.90;;;4.43;;
7813;SDS011;3952;48.364;16.022;2022-07-29T09:39:38;4.32;;;4.07;;
7813;SDS011;3952;48.364;16.022;2022-07-29T09:42:12;5.20;;;4.90;;
7813;SDS011;3952;48.364;16.022;2022-07-29T09:44:43;5.13;;;4.82;;
7813;SDS011;3952;48.364;16.022;2022-07-29T09:47:13;4.53;;;4.32;;
7813;SDS011;3952;48.364;16.022;2022-07-29T09:49:52;4.78;;;4.22;;
7813;SDS011;3952;48.364;16.022;2022-07-29T09:52:23;5.00;;;4.70;;
7813;SDS011;3952;48.364;16.022;2022-07-29T09:54:50;5.00;;;4.78;;
7813;SDS011;3952;48.364;16.022;2022-07-29T09:57:24;5.45;;;4.93;;
7813;SDS011;3952;48.364;16.022;2022-07-29T09:59:56;5.53;;;5.13;;
7813;SDS011;3952;48.364;16.022;2022-07-29T10:02:27;5.20;;;4.90;;
7813;SDS011;3952;48.364;16.022;2022-07-29T10:04:57;4.55;;;4.28;;
7813;SDS011;3952;48.364;16.022;2022-07-29T10:07:25;4.72;;;4.43;;
7813;SDS011;3952;48.364;16.022;2022-07-29T10:09:53;4.80;;;4.40;;
7813;SDS011;3952;48.364;16.022;2022-07-29T10:12:22;4.88;;;4.57;;
7813;SDS011;3952;48.364;16.022;2022-07-29T10:14:51;5.63;;;5.15;;
7813;SDS011;3952;48.364;16.022;2022-07-29T10:17:19;5.40;;;5.00;;
7813;SDS011;3952;48.364;16.022;2022-07-29T10:19:48;5.22;;;4.93;;
7813;SDS011;3952;48.364;16.022;2022-07-29T10:22:16;5.68;;;5.00;;
7813;SDS011;3952;48.364;16.022;2022-07-29T10:24:44;5.32;;;4.93;;
7813;SDS011;3952;48.364;16.022;2022-07-29T10:27:11;5.57;;;5.28;;
7813;SDS011;3952;48.364;16.022;2022-07-29T10:29:40;5.80;;;5.35;;
7813;SDS011;3952;48.364;16.022;2022-07-29T10:32:13;4.65;;;4.32;;
7813;SDS011;3952;48.364;16.022;2022-07-29T10:34:51;5.18;;;4.88;;
7813;SDS011;3952;48.364;16.022;2022-07-29T10:37:43;7.40;;;5.10;;
7813;SDS011;3952;48.364;16.022;2022-07-29T10:40:24;5.70;;;5.28;;
7813;SDS011;3952;48.364;16.022;2022-07-29T10:43:17;5.40;;;4.97;;
7813;SDS011;3952;48.364;16.022;2022-07-29T10:45:48;5.03;;;4.72;;
7813;SDS011;3952;48.364;16.022;2022-07-29T10:48:21;5.53;;;5.05;;
7813;SDS011;3952;48.364;16.022;2022-07-29T10:50:52;4.47;;;4.20;;
7813;SDS011;3952;48.364;16.022;2022-07-29T10:53:20;5.72;;;5.32;;
7813;SDS011;3952;48.364;16.022;2022-07-29T10:55:48;5.22;;;4.85;;
7813;SDS011;3952;48.364;16.022;2022-07-29T10:58:17;4.80;;;4.50;;
7813;SDS011;3952;48.364;16.022;2022-07-29T11:00:46;4.32;;;4.03;;
7813;SDS011;3952;48.364;16.022;2022-07-29T11:06:17;4.72;;;4.43;;
7813;SDS011;3952;48.364;16.022;2022-07-29T11:08:44;4.25;;;4.03;;
7813;SDS011;3952;48.364;16.022;2022-07-29T11:14:07;5.43;;;4.93;;
7813;SDS011;3952;48.364;16.022;2022-07-29T11:19:29;5.53;;;4.88;;
7813;SDS011;3952;48.364;16.022;2022-07-29T11:21:57;5.55;;;4.97;;
7813;SDS011;3952;48.364;16.022;2022-07-29T11:24:25;5.38;;;5.07;;
7813;SDS011;3952;48.364;16.022;2022-07-29T11:27:07;5.13;;;4.82;;
7813;SDS011;3952;48.364;16.022;2022-07-29T11:29:38;4.72;;;4.32;;
7813;SDS011;3952;48.364;16.022;2022-07-29T11:32:12;5.82;;;5.22;;
7813;SDS011;3952;48.364;16.022;2022-07-29T11:34:41;5.40;;;5.05;;
7813;SDS011;3952;48.364;16.022;2022-07-29T11:42:48;4.40;;;4.20;;
7813;SDS011;3952;48.364;16.022;2022-07-29T11:45:18;3.78;;;3.58;;
7813;SDS011;3952;48.364;16.022;2022-07-29T11:47:50;4.28;;;4.05;;
7813;SDS011;3952;48.364;16.022;2022-07-29T11:50:32;4.85;;;4.55;;
7813;SDS011;3952;48.364;16.022;2022-07-29T11:53:02;4.63;;;4.32;;
7813;SDS011;3952;48.364;16.022;2022-07-29T11:55:37;5.38;;;4.25;;
7813;SDS011;3952;48.364;16.022;2022-07-29T11:58:05;4.65;;;3.97;;
7813;SDS011;3952;48.364;16.022;2022-07-29T12:00:35;4.53;;;4.28;;
7813;SDS011;3952;48.364;16.022;2022-07-29T12:03:05;4.28;;;3.97;;
7813;SDS011;3952;48.364;16.022;2022-07-29T12:05:35;4.10;;;3.90;;
7813;SDS011;3952;48.364;16.022;2022-07-29T12:08:04;4.88;;;4.57;;
7813;SDS011;3952;48.364;16.022;2022-07-29T12:10:33;4.10;;;3.80;;
7813;SDS011;3952;48.364;16.022;2022-07-29T12:13:00;4.68;;;4.38;;
7813;SDS011;3952;48.364;16.022;2022-07-29T12:15:28;4.38;;;4.18;;
7813;SDS011;3952;48.364;16.022;2022-07-29T12:17:55;4.20;;;4.00;;
7813;SDS011;3952;48.364;16.022;2022-07-29T12:20:25;3.95;;;3.75;;
7813;SDS011;3952;48.364;16.022;2022-07-29T12:22:54;4.22;;;3.83;;
7813;SDS011;3952;48.364;16.022;2022-07-29T12:25:22;4.00;;;3.40;;
7813;SDS011;3952;48.364;16.022;2022-07-29T12:28:01;4.22;;;3.85;;
7813;SDS011;3952;48.364;16.022;2022-07-29T12:30:34;4.28;;;3.95;;
7813;SDS011;3952;48.364;16.022;2022-07-29T12:33:12;4.60;;;4.30;;
7813;SDS011;3952;48.364;16.022;2022-07-29T12:35:48;4.63;;;4.22;;
7813;SDS011;3952;48.364;16.022;2022-07-29T12:38:18;4.50;;;4.07;;
7813;SDS011;3952;48.364;16.022;2022-07-29T12:40:46;3.92;;;3.70;;
7813;SDS011;3952;48.364;16.022;2022-07-29T12:43:16;4.35;;;4.05;;
7813;SDS011;3952;48.364;16.022;2022-07-29T12:45:46;4.90;;;4.18;;
7813;SDS011;3952;48.364;16.022;2022-07-29T12:48:15;4.53;;;4.20;;
7813;SDS011;3952;48.364;16.022;2022-07-29T12:50:54;4.65;;;4.25;;
7813;SDS011;3952;48.364;16.022;2022-07-29T12:53:23;4.88;;;4.57;;
7813;SDS011;3952;48.364;16.022;2022-07-29T12:55:52;4.35;;;4.15;;
7813;SDS011;3952;48.364;16.022;2022-07-29T12:58:29;5.22;;;4.80;;
7813;SDS011;3952;48.364;16.022;2022-07-29T13:01:02;5.05;;;4.72;;
7813;SDS011;3952;48.364;16.022;2022-07-29T13:03:43;4.65;;;4.35;;
7813;SDS011;3952;48.364;16.022;2022-07-29T13:06:29;4.65;;;4.35;;
7813;SDS011;3952;48.364;16.022;2022-07-29T13:11:42;5.07;;;4.70;;
7813;SDS011;3952;48.364;16.022;2022-07-29T13:14:11;4.80;;;4.35;;
7813;SDS011;3952;48.364;16.022;2022-07-29T13:19:33;4.78;;;4.38;;
7813;SDS011;3952;48.364;16.022;2022-07-29T13:22:04;4.60;;;4.20;;
7813;SDS011;3952;48.364;16.022;2022-07-29T13:24:31;4.80;;;4.40;;
7813;SDS011;3952;48.364;16.022;2022-07-29T13:26:59;4.75;;;4.38;;
7813;SDS011;3952;48.364;16.022;2022-07-29T13:29:26;4.82;;;4.63;;
7813;SDS011;3952;48.364;16.022;2022-07-29T13:31:54;6.07;;;4.40;;
7813;SDS011;3952;48.364;16.022;2022-07-29T13:34:22;5.10;;;4.80;;
7813;SDS011;3952;48.364;16.022;2022-07-29T13:36:49;5.03;;;4.70;;
7813;SDS011;3952;48.364;16.022;2022-07-29T13:39:18;4.93;;;4.63;;
7813;SDS011;3952;48.364;16.022;2022-07-29T13:41:45;5.60;;;5.10;;
7813;SDS011;3952;48.364;16.022;2022-07-29T13:44:12;5.10;;;4.90;;
7813;SDS011;3952;48.364;16.022;2022-07-29T13:46:40;5.35;;;5.05;;
7813;SDS011;3952;48.364;16.022;2022-07-29T13:49:07;5.38;;;5.07;;
7813;SDS011;3952;48.364;16.022;2022-07-29T13:51:34;4.78;;;4.57;;
7813;SDS011;3952;48.364;16.022;2022-07-29T13:54:02;5.55;;;5.15;;
7813;SDS011;3952;48.364;16.022;2022-07-29T13:56:30;5.63;;;5.22;;
7813;SDS011;3952;48.364;16.022;2022-07-29T13:58:58;4.78;;;4.57;;
7813;SDS011;3952;48.364;16.022;2022-07-29T14:01:25;7.05;;;5.75;;
7813;SDS011;3952;48.364;16.022;2022-07-29T14:03:52;5.53;;;5.22;;
7813;SDS011;3952;48.364;16.022;2022-07-29T14:06:19;5.35;;;5.05;;
7813;SDS011;3952;48.364;16.022;2022-07-29T14:08:47;5.63;;;5.22;;
7813;SDS011;3952;48.364;16.022;2022-07-29T14:11:14;5.25;;;4.95;;
7813;SDS011;3952;48.364;16.022;2022-07-29T14:13:42;4.55;;;4.35;;
7813;SDS011;3952;48.364;16.022;2022-07-29T14:16:10;5.32;;;4.82;;
7813;SDS011;3952;48.364;16.022;2022-07-29T14:18:37;5.43;;;5.13;;
7813;SDS011;3952;48.364;16.022;2022-07-29T14:21:04;5.82;;;5.53;;
7813;SDS011;3952;48.364;16.022;2022-07-29T14:23:31;5.13;;;4.82;;
7813;SDS011;3952;48.364;16.022;2022-07-29T14:25:58;5.75;;;5.32;;
7813;SDS011;3952;48.364;16.022;2022-07-29T14:28:26;5.50;;;5.20;;
7813;SDS011;3952;48.364;16.022;2022-07-29T14:30:54;6.07;;;5.68;;
7813;SDS011;3952;48.364;16.022;2022-07-29T14:33:22;5.32;;;5.10;;
7813;SDS011;3952;48.364;16.022;2022-07-29T14:35:49;6.50;;;5.90;;
7813;SDS011;3952;48.364;16.022;2022-07-29T14:38:16;7.47;;;6.72;;
7813;SDS011;3952;48.364;16.022;2022-07-29T14:40:44;6.40;;;6.00;;
7813;SDS011;3952;48.364;16.022;2022-07-29T14:43:11;6.20;;;5.80;;
7813;SDS011;3952;48.364;16.022;2022-07-29T14:45:39;7.55;;;6.60;;
7813;SDS011;3952;48.364;16.022;2022-07-29T14:48:07;6.18;;;5.68;;
7813;SDS011;3952;48.364;16.022;2022-07-29T14:50:36;6.63;;;6.13;;
7813;SDS011;3952;48.364;16.022;2022-07-29T14:53:04;6.85;;;6.30;;
7813;SDS011;3952;48.364;16.022;2022-07-29T14:55:31;5.90;;;5.45;;
7813;SDS011;3952;48.364;16.022;2022-07-29T14:57:58;5.60;;;5.20;;
7813;SDS011;3952;48.364;16.022;2022-07-29T15:00:26;5.97;;;5.57;;
7813;SDS011;3952;48.364;16.022;2022-07-29T15:02:57;5.07;;;4.80;;
7813;SDS011;3952;48.364;16.022;2022-07-29T15:05:25;5.50;;;5.20;;
7813;SDS011;3952;48.364;16.022;2022-07-29T15:07:53;5.47;;;4.97;;
7813;SDS011;3952;48.364;16.022;2022-07-29T15:10:20;5.78;;;5.47;;
7813;SDS011;3952;48.364;16.022;2022-07-29T15:12:47;5.50;;;5.20;;
7813;SDS011;3952;48.364;16.022;2022-07-29T15:15:14;5.57;;;5.18;;
7813;SDS011;3952;48.364;16.022;2022-07-29T15:17:42;5.95;;;5.40;;
7813;SDS011;3952;48.364;16.022;2022-07-29T15:20:09;5.38;;;4.93;;
7813;SDS011;3952;48.364;16.022;2022-07-29T15:22:38;6.25;;;5.05;;
7813;SDS011;3952;48.364;16.022;2022-07-29T15:25:07;4.80;;;4.40;;
7813;SDS011;3952;48.364;16.022;2022-07-29T15:27:35;4.85;;;4.55;;
7813;SDS011;3952;48.364;16.022;2022-07-29T15:30:02;4.95;;;4.68;;
7813;SDS011;3952;48.364;16.022;2022-07-29T15:32:30;5.28;;;4.47;;
7813;SDS011;3952;48.364;16.022;2022-07-29T15:34:57;5.22;;;5.00;;